首页
METAR-TAF:

METAR-TAF

机场 :

達沙古茲機場

达沙古兹, 土库曼斯坦

纬度: 41-45-53N, 经度: 059-49-59E, 海拔: 83米

当前天气观测

该预报发布于37分钟前的01:00 UTC
风速8节,风向
温度 24°C
湿度 41%
气压 1007 hPa
能见度10公里或以上
1500米以下无云,无积雨云

METAR: UTAT 180100Z 10008KT CAVOK 24/10 Q1007 NOSIG

时间: 06:37 (01:37 UTC)

预报

该预报发布于2小时和55分钟前的22:42 UTC
预报有效从18日的 00点(UTC)到 18日的 24点(UTC)
风速12节,风向北转东北
能见度10公里或以上
散云层高于5000英尺
短暂存在
从 18日的 00点(UTC)到 18日的 06点(UTC)
风速12节,风向

TAF: UTAT 172242Z 1800/1824 03012KT 9999 SCT050 530005 TEMPO 1800/1806 10012KT

超过4000个机场的气象观测和天气预报(METAR&TAF报告)。

可查询的气象台以黄色和红色小点在地图上表示。

将鼠标移到小点上方,可查看气象台名称。

然后点击查看天气观测和预报。

如需切换地图:点击带黑十字的绿色按钮放大地图;点击带横线的绿色按钮缩小地图;或者点击绿色箭头查看邻近地区的地图。


METAR-TAF: